Time;durP1;ratioP1;P1;durP2;ratioP2;P2;SDS_P1;SDS_P2;PMS_P1;PMS_P2;Temp;Humidity;BMP_temperature;BMP_pressure;BME280_temperature;BME280_humidity;BME280_pressure;Samples;Min_cycle;Max_cycle;Signal;HPM_P1;HPM_P2
2022/12/30 00:00:31;;;;;;;18.23;4.75;;;6.70;99.90;;;;;;5016086;28;20394;-38
2022/12/30 00:02:58;;;;;;;17.33;5.25;;;6.70;99.90;;;;;;5015466;28;20063;-38
2022/12/30 00:05:26;;;;;;;15.50;4.65;;;6.60;99.90;;;;;;5023514;28;20486;-38
2022/12/30 00:07:52;;;;;;;11.05;4.22;;;6.60;99.90;;;;;;5022239;28;20045;-38
2022/12/30 00:10:18;;;;;;;20.55;5.22;;;6.70;99.90;;;;;;5010559;28;20045;-38
2022/12/30 00:35:16;;;;;;;22.38;5.47;;;6.40;99.90;;;;;;4935042;29;20059;-38
2022/12/30 00:37:42;;;;;;;17.15;5.47;;;6.40;99.90;;;;;;4988981;28;20447;-38
2022/12/30 00:40:13;;;;;;;17.75;5.72;;;6.40;99.90;;;;;;4996037;28;20045;-38
2022/12/30 00:45:24;;;;;;;18.13;5.75;;;6.40;99.90;;;;;;5019972;28;20073;-37
2022/12/30 00:47:51;;;;;;;17.20;6.45;;;6.40;99.90;;;;;;4996137;28;20046;-37
2022/12/30 00:58:35;;;;;;;15.25;3.72;;;6.40;99.90;;;;;;5011860;28;20050;-38
2022/12/30 01:01:02;;;;;;;14.68;4.43;;;6.30;99.90;;;;;;5009061;28;20038;-37
2022/12/30 01:03:28;;;;;;;17.02;5.57;;;6.30;99.90;;;;;;4995041;28;20514;-38
2022/12/30 01:05:54;;;;;;;12.82;4.25;;;6.30;99.90;;;;;;5019991;28;20042;-37
2022/12/30 01:08:21;;;;;;;18.75;6.45;;;6.30;99.90;;;;;;5013076;28;20553;-37
2022/12/30 01:10:47;;;;;;;20.52;7.45;;;6.30;99.90;;;;;;5001578;28;20050;-38
2022/12/30 01:13:13;;;;;;;15.60;5.00;;;6.30;99.90;;;;;;4995944;28;20405;-38
2022/12/30 01:15:39;;;;;;;16.27;4.55;;;6.30;99.90;;;;;;5014971;28;20038;-38
2022/12/30 01:18:05;;;;;;;12.75;4.90;;;6.20;99.90;;;;;;4996222;28;20040;-37
2022/12/30 01:20:32;;;;;;;16.88;5.32;;;6.20;99.90;;;;;;5006623;28;20475;-38
2022/12/30 01:22:58;;;;;;;18.90;6.03;;;6.10;99.90;;;;;;5013221;28;20041;-37
2022/12/30 01:25:23;;;;;;;18.85;6.38;;;6.10;99.90;;;;;;4999283;28;20093;-39
2022/12/30 01:27:52;;;;;;;21.02;5.70;;;6.00;99.90;;;;;;5024047;28;20042;-39
2022/12/30 01:30:18;;;;;;;13.40;4.45;;;6.00;99.90;;;;;;4980303;28;20080;-37
2022/12/30 01:32:44;;;;;;;18.05;4.93;;;6.00;99.90;;;;;;5002012;28;20077;-37
2022/12/30 01:35:12;;;;;;;15.93;5.43;;;6.00;99.90;;;;;;4995607;28;20495;-38
2022/12/30 01:37:37;;;;;;;19.00;5.63;;;5.90;99.90;;;;;;5002382;28;20116;-37
2022/12/30 01:40:04;;;;;;;14.63;4.72;;;5.90;99.90;;;;;;4981252;28;20507;-37
2022/12/30 01:42:37;;;;;;;13.98;5.00;;;5.90;99.90;;;;;;4996646;28;20053;-44
2022/12/30 01:45:25;;;;;;;16.90;4.55;;;5.80;99.90;;;;;;5004511;28;20034;-37
2022/12/30 01:48:03;;;;;;;18.38;4.20;;;5.80;99.90;;;;;;4980971;28;20450;-38
2022/12/30 01:50:42;;;;;;;19.38;4.85;;;5.80;99.90;;;;;;5013019;28;20041;-39
2022/12/30 01:53:18;;;;;;;18.73;5.93;;;5.80;99.90;;;;;;4994733;28;20498;-38
2022/12/30 01:56:12;;;;;;;16.80;4.72;;;5.80;99.90;;;;;;5011932;28;20104;-38
2022/12/30 01:59:01;;;;;;;15.40;5.05;;;5.80;99.90;;;;;;5018345;28;20494;-39
2022/12/30 02:01:27;;;;;;;17.38;5.90;;;5.80;99.90;;;;;;5013089;28;20129;-37
2022/12/30 02:04:01;;;;;;;13.95;6.03;;;5.80;99.90;;;;;;5002558;28;20046;-38
2022/12/30 02:06:59;;;;;;;24.08;7.68;;;5.70;99.90;;;;;;5025913;28;20063;-40
2022/12/30 02:09:28;;;;;;;16.35;4.60;;;5.70;99.90;;;;;;5027852;28;20084;-38
2022/12/30 02:11:55;;;;;;;16.35;4.57;;;5.70;99.90;;;;;;5004656;28;20045;-38
2022/12/30 02:14:24;;;;;;;15.85;5.65;;;5.70;99.90;;;;;;5001637;28;20038;-38
2022/12/30 02:17:11;;;;;;;22.35;7.72;;;5.70;99.90;;;;;;4999855;28;20049;-40
2022/12/30 02:20:09;;;;;;;19.48;7.78;;;5.70;99.90;;;;;;4982646;28;20034;-38
2022/12/30 02:23:09;;;;;;;19.50;6.25;;;5.60;99.90;;;;;;5000602;28;20487;-38
2022/12/30 02:26:00;;;;;;;21.48;4.78;;;5.70;99.90;;;;;;5016600;28;21243;-40
2022/12/30 02:28:48;;;;;;;18.00;8.05;;;5.70;99.90;;;;;;5017733;28;20606;-38
2022/12/30 02:31:34;;;;;;;15.45;4.95;;;5.60;99.90;;;;;;5005354;28;20038;-38
2022/12/30 02:34:22;;;;;;;12.55;4.45;;;5.60;99.90;;;;;;5015089;28;20381;-38
2022/12/30 02:37:10;;;;;;;20.58;5.85;;;5.60;99.90;;;;;;4998655;28;20046;-38
2022/12/30 02:40:07;;;;;;;19.70;5.93;;;5.60;99.90;;;;;;5004726;28;20041;-38
2022/12/30 02:45:54;;;;;;;36.10;10.85;;;5.50;99.90;;;;;;5014605;28;20096;-38
2022/12/30 02:48:27;;;;;;;16.55;5.90;;;5.50;99.90;;;;;;5014191;28;20036;-37
2022/12/30 02:53:41;;;;;;;14.60;4.80;;;5.40;99.90;;;;;;5017395;28;19925;-37
2022/12/30 02:56:10;;;;;;;21.00;5.57;;;5.40;99.90;;;;;;5009684;28;20030;-38
2022/12/30 02:58:48;;;;;;;19.50;5.05;;;5.40;99.90;;;;;;5018037;28;20114;-38
2022/12/30 03:04:31;;;;;;;16.63;5.60;;;5.40;99.90;;;;;;5013481;28;20060;-37
2022/12/30 03:07:42;;;;;;;12.55;5.28;;;5.30;99.90;;;;;;4989297;28;20557;-38
2022/12/30 03:13:37;;;;;;;15.95;5.05;;;5.30;99.90;;;;;;5015553;28;20045;-38
2022/12/30 03:16:07;;;;;;;19.00;5.60;;;5.30;99.90;;;;;;5005007;28;20034;-38
2022/12/30 03:18:35;;;;;;;16.25;4.45;;;5.30;99.90;;;;;;5014539;28;20033;-38
2022/12/30 03:21:05;;;;;;;13.10;4.95;;;5.20;99.90;;;;;;4997644;28;20076;-38
2022/12/30 03:29:11;;;;;;;18.85;4.80;;;5.10;99.90;;;;;;5016508;28;20046;-38
2022/12/30 03:31:38;;;;;;;15.40;4.75;;;5.00;99.90;;;;;;4991715;28;20038;-39
2022/12/30 03:34:04;;;;;;;14.15;4.60;;;5.00;99.90;;;;;;5014138;28;20036;-39
2022/12/30 03:36:37;;;;;;;15.38;4.38;;;5.00;99.90;;;;;;4996629;28;20480;-38
2022/12/30 03:39:13;;;;;;;15.25;4.53;;;4.90;99.90;;;;;;4996850;28;20038;-38
2022/12/30 03:41:41;;;;;;;12.40;4.20;;;5.00;99.90;;;;;;5013915;28;20399;-38
2022/12/30 03:44:09;;;;;;;14.18;3.92;;;4.90;99.90;;;;;;5006820;28;20483;-38
2022/12/30 03:46:39;;;;;;;15.07;4.45;;;4.90;99.90;;;;;;4999026;28;20038;-37
2022/12/30 03:49:09;;;;;;;16.30;3.85;;;4.90;99.90;;;;;;4991755;28;20475;-37
2022/12/30 03:51:36;;;;;;;16.48;4.32;;;4.90;99.90;;;;;;5013419;28;20550;-37
2022/12/30 03:54:02;;;;;;;14.48;3.60;;;4.90;99.90;;;;;;4996452;28;20034;-38
2022/12/30 03:56:28;;;;;;;10.18;3.45;;;4.80;99.90;;;;;;5014334;28;20040;-37
2022/12/30 03:58:55;;;;;;;11.40;4.13;;;4.90;99.90;;;;;;4999981;28;20128;-38
2022/12/30 04:01:22;;;;;;;11.88;3.45;;;4.80;99.90;;;;;;4998202;28;20046;-39
2022/12/30 04:03:48;;;;;;;12.93;3.53;;;4.80;99.90;;;;;;4997954;28;20091;-37
2022/12/30 04:06:14;;;;;;;16.60;4.10;;;4.80;99.90;;;;;;5009234;28;20038;-37
2022/12/30 04:08:42;;;;;;;13.45;3.80;;;4.80;99.90;;;;;;4997440;28;20494;-37
2022/12/30 04:11:11;;;;;;;13.32;3.83;;;4.70;99.90;;;;;;5001828;28;20053;-37
2022/12/30 04:13:38;;;;;;;12.55;3.67;;;4.80;99.90;;;;;;5016903;28;20034;-38
2022/12/30 04:16:04;;;;;;;14.60;4.53;;;4.70;99.90;;;;;;4999442;28;20040;-37
2022/12/30 04:18:31;;;;;;;13.63;3.55;;;4.70;99.90;;;;;;5018954;28;20037;-38
2022/12/30 04:20:57;;;;;;;10.40;3.50;;;4.70;99.90;;;;;;4982734;28;20061;-37
2022/12/30 04:23:23;;;;;;;12.73;4.45;;;4.60;99.90;;;;;;5001149;28;20136;-38
2022/12/30 04:25:49;;;;;;;12.15;3.95;;;4.60;99.90;;;;;;5004260;28;20529;-37
2022/12/30 04:28:17;;;;;;;10.23;3.42;;;4.60;99.90;;;;;;5004085;28;20740;-37
2022/12/30 04:30:43;;;;;;;12.50;3.70;;;4.60;99.90;;;;;;4996276;28;20049;-37
2022/12/30 04:33:08;;;;;;;11.65;3.97;;;4.60;99.90;;;;;;4995976;28;20500;-37
2022/12/30 04:35:37;;;;;;;11.73;4.03;;;4.60;99.90;;;;;;4995790;28;20048;-38
2022/12/30 04:38:03;;;;;;;10.93;4.05;;;4.60;99.90;;;;;;5007926;28;20069;-37
2022/12/30 04:40:29;;;;;;;13.90;4.03;;;4.50;99.90;;;;;;4998327;28;20513;-38
2022/12/30 04:42:55;;;;;;;14.90;5.00;;;4.50;99.90;;;;;;5015373;28;20042;-38
2022/12/30 04:45:21;;;;;;;10.98;4.00;;;4.50;99.90;;;;;;5019814;28;20041;-38
2022/12/30 04:47:46;;;;;;;12.82;3.47;;;4.50;99.90;;;;;;5016409;28;20120;-38
2022/12/30 04:50:12;;;;;;;10.38;3.88;;;4.50;99.90;;;;;;4996875;28;20041;-38
2022/12/30 04:52:38;;;;;;;12.52;3.65;;;4.50;99.90;;;;;;5006291;28;20046;-37
2022/12/30 04:55:04;;;;;;;11.50;3.80;;;4.40;99.90;;;;;;4996595;28;20026;-38
2022/12/30 04:57:30;;;;;;;9.65;3.72;;;4.40;99.90;;;;;;5012966;28;20100;-37
2022/12/30 04:59:57;;;;;;;13.48;4.13;;;4.40;99.90;;;;;;4997658;28;20029;-38
2022/12/30 05:02:23;;;;;;;11.23;3.60;;;4.40;99.90;;;;;;4997159;28;20038;-38
2022/12/30 05:04:49;;;;;;;11.57;3.80;;;4.40;99.90;;;;;;4998948;28;20522;-38
2022/12/30 05:07:15;;;;;;;15.18;4.32;;;4.40;99.90;;;;;;4999634;28;20041;-38
2022/12/30 05:09:41;;;;;;;13.27;4.15;;;4.40;99.90;;;;;;4998902;28;20045;-38
2022/12/30 05:12:07;;;;;;;13.75;3.88;;;4.40;99.90;;;;;;4998706;28;20398;-37
2022/12/30 05:14:33;;;;;;;13.98;3.72;;;4.40;99.90;;;;;;4996738;28;20113;-38
2022/12/30 05:16:58;;;;;;;13.23;3.67;;;4.40;99.90;;;;;;4999209;28;20132;-38
2022/12/30 05:19:24;;;;;;;9.45;3.95;;;4.50;99.90;;;;;;4995810;28;20041;-38
2022/12/30 05:21:51;;;;;;;18.52;5.25;;;4.50;99.90;;;;;;5013221;28;20372;-38
2022/12/30 05:27:01;;;;;;;17.48;4.57;;;4.50;99.90;;;;;;5016178;28;20049;-38
2022/12/30 05:29:27;;;;;;;11.90;3.92;;;4.50;99.90;;;;;;4998228;28;20085;-38
2022/12/30 05:31:53;;;;;;;13.15;4.15;;;4.50;99.90;;;;;;4995772;28;20041;-37
2022/12/30 05:34:19;;;;;;;10.57;3.38;;;4.50;99.90;;;;;;4998754;28;20030;-38
2022/12/30 05:36:44;;;;;;;13.10;3.90;;;4.60;99.90;;;;;;4997637;28;20626;-37
2022/12/30 05:39:12;;;;;;;18.55;4.07;;;4.60;99.90;;;;;;4999852;28;20038;-38
2022/12/30 05:41:38;;;;;;;14.93;4.05;;;4.50;99.90;;;;;;4998604;28;20049;-38
2022/12/30 05:44:04;;;;;;;14.90;3.88;;;4.50;99.90;;;;;;4999492;28;20040;-39
2022/12/30 05:46:30;;;;;;;14.00;3.88;;;4.40;99.90;;;;;;4999381;28;20104;-37
2022/12/30 05:48:56;;;;;;;13.65;3.40;;;4.40;99.90;;;;;;4999244;28;20517;-37
2022/12/30 05:51:22;;;;;;;10.82;3.45;;;4.40;99.90;;;;;;4999572;28;20070;-38
2022/12/30 05:53:48;;;;;;;13.95;3.78;;;4.40;99.90;;;;;;5000724;28;20081;-38
2022/12/30 05:56:14;;;;;;;15.20;4.07;;;4.40;99.90;;;;;;4995821;28;20514;-38
2022/12/30 05:58:40;;;;;;;13.57;3.92;;;4.40;99.90;;;;;;5015623;28;20033;-38
2022/12/30 06:01:06;;;;;;;16.27;4.40;;;4.40;99.90;;;;;;5021185;28;20380;-38
2022/12/30 06:03:32;;;;;;;12.45;3.85;;;4.40;99.90;;;;;;4999378;28;20045;-37
2022/12/30 06:06:00;;;;;;;17.25;3.97;;;4.50;99.90;;;;;;5001386;28;20042;-37
2022/12/30 06:08:26;;;;;;;13.02;3.67;;;4.40;99.90;;;;;;5004570;28;20403;-38
2022/12/30 06:10:52;;;;;;;19.35;4.05;;;4.40;99.90;;;;;;5001432;28;20044;-37
2022/12/30 06:13:18;;;;;;;15.50;4.72;;;4.40;99.90;;;;;;5011750;28;20513;-37
2022/12/30 06:15:44;;;;;;;19.10;5.28;;;4.40;99.90;;;;;;5000810;28;20038;-37
2022/12/30 06:18:10;;;;;;;21.80;7.82;;;4.40;99.90;;;;;;5001776;28;20030;-37
2022/12/30 06:20:36;;;;;;;23.58;9.82;;;4.30;99.90;;;;;;5015122;28;20037;-38
2022/12/30 06:23:03;;;;;;;20.08;8.95;;;4.30;99.90;;;;;;4985944;28;20093;-38
2022/12/30 06:25:29;;;;;;;20.42;7.03;;;4.30;99.90;;;;;;4978039;28;20045;-37
2022/12/30 06:27:55;;;;;;;18.30;5.75;;;4.30;99.90;;;;;;5000935;28;20037;-37
2022/12/30 06:30:21;;;;;;;12.93;4.93;;;4.30;99.90;;;;;;5016186;28;20675;-38
2022/12/30 06:32:47;;;;;;;19.02;4.85;;;4.30;99.90;;;;;;5013243;28;20758;-38
2022/12/30 06:35:13;;;;;;;15.23;4.57;;;4.30;99.90;;;;;;4996974;28;20045;-37
2022/12/30 06:37:40;;;;;;;12.98;3.53;;;4.30;99.90;;;;;;4999933;28;20064;-37
2022/12/30 06:40:07;;;;;;;12.52;4.20;;;4.30;99.90;;;;;;5011401;28;20411;-37
2022/12/30 06:42:33;;;;;;;12.48;3.58;;;4.20;99.90;;;;;;4991664;28;20511;-37
2022/12/30 06:44:59;;;;;;;17.67;4.32;;;4.30;99.90;;;;;;5005891;28;20354;-36
2022/12/30 06:47:25;;;;;;;13.98;4.25;;;4.20;99.90;;;;;;5016365;28;20132;-36
2022/12/30 06:49:51;;;;;;;14.70;3.88;;;4.30;99.90;;;;;;4998132;28;20045;-36
2022/12/30 06:52:17;;;;;;;9.07;3.55;;;4.20;99.90;;;;;;5015525;28;20399;-36
2022/12/30 06:54:43;;;;;;;15.73;3.97;;;4.20;99.90;;;;;;4998375;28;20041;-37
2022/12/30 06:57:09;;;;;;;15.15;4.00;;;4.30;99.90;;;;;;4998388;28;20500;-36
2022/12/30 06:59:35;;;;;;;11.77;3.75;;;4.20;99.90;;;;;;5029787;28;20121;-36
2022/12/30 07:02:01;;;;;;;12.02;4.18;;;4.20;99.90;;;;;;5018183;28;20045;-37
2022/12/30 07:04:27;;;;;;;14.50;3.78;;;4.30;99.90;;;;;;5004379;28;20048;-37
2022/12/30 07:06:53;;;;;;;12.00;3.70;;;4.20;99.90;;;;;;5036120;28;20041;-36
2022/12/30 07:09:20;;;;;;;14.55;3.67;;;4.20;99.90;;;;;;5012207;28;20041;-36
2022/12/30 07:11:46;;;;;;;18.63;3.85;;;4.30;99.90;;;;;;4998849;28;20454;-37
2022/12/30 07:14:11;;;;;;;16.73;4.20;;;4.30;99.90;;;;;;4999444;28;20034;-36
2022/12/30 07:16:38;;;;;;;16.15;3.72;;;4.30;99.90;;;;;;4982186;28;20044;-37
2022/12/30 07:19:04;;;;;;;12.32;3.85;;;4.30;99.90;;;;;;4999888;28;20052;-37
2022/12/30 07:21:30;;;;;;;13.50;3.65;;;4.30;99.90;;;;;;5003360;28;20565;-36
2022/12/30 07:23:56;;;;;;;14.25;3.63;;;4.20;99.90;;;;;;5018965;28;20046;-36
2022/12/30 07:26:22;;;;;;;16.42;4.68;;;4.30;99.90;;;;;;4998375;28;20034;-36
2022/12/30 07:28:47;;;;;;;13.40;3.92;;;4.20;99.90;;;;;;4982001;28;20045;-37
2022/12/30 07:31:13;;;;;;;12.43;3.60;;;4.30;99.90;;;;;;4997272;28;20395;-36
2022/12/30 07:33:39;;;;;;;12.95;3.72;;;4.30;99.90;;;;;;4997933;28;20038;-37
2022/12/30 07:36:06;;;;;;;12.35;3.92;;;4.30;99.90;;;;;;4999780;28;20049;-37
2022/12/30 07:38:32;;;;;;;20.50;3.90;;;4.40;99.90;;;;;;5014865;28;20077;-36
2022/12/30 07:40:58;;;;;;;15.00;3.80;;;4.40;99.90;;;;;;5005488;28;20048;-36
2022/12/30 07:43:24;;;;;;;16.40;4.10;;;4.40;99.90;;;;;;5001460;28;20403;-36
2022/12/30 07:45:50;;;;;;;13.45;3.67;;;4.40;99.90;;;;;;4997895;28;20076;-36
2022/12/30 07:48:40;;;;;;;13.40;3.83;;;4.40;99.90;;;;;;5016712;28;20038;-37
2022/12/30 07:51:17;;;;;;;15.48;3.83;;;4.50;99.90;;;;;;5003837;28;20046;-36
2022/12/30 07:53:44;;;;;;;14.43;4.35;;;4.50;99.90;;;;;;4981356;28;20577;-37
2022/12/30 07:56:12;;;;;;;13.10;3.50;;;4.50;99.90;;;;;;5003187;28;20050;-36
2022/12/30 07:58:38;;;;;;;10.15;3.53;;;4.50;99.90;;;;;;5014342;28;20112;-37
2022/12/30 08:01:09;;;;;;;13.60;3.80;;;4.50;99.90;;;;;;4997620;28;20034;-37
2022/12/30 08:03:36;;;;;;;12.05;3.40;;;4.50;99.90;;;;;;4997050;28;20045;-37
2022/12/30 08:06:10;;;;;;;14.00;3.60;;;4.50;99.90;;;;;;5003567;28;20083;-36
2022/12/30 08:08:36;;;;;;;16.23;4.05;;;4.50;99.90;;;;;;5007644;28;20077;-37
2022/12/30 08:11:04;;;;;;;13.45;4.30;;;4.50;99.90;;;;;;5003845;28;20045;-37
2022/12/30 08:13:33;;;;;;;18.45;5.63;;;4.50;99.90;;;;;;5019341;28;20042;-37
2022/12/30 08:15:59;;;;;;;17.75;6.13;;;4.60;99.90;;;;;;5002283;28;20038;-36
2022/12/30 08:18:24;;;;;;;19.00;6.45;;;4.60;99.90;;;;;;5004104;28;20517;-36
2022/12/30 08:20:50;;;;;;;13.02;5.10;;;4.60;99.90;;;;;;4997015;28;20034;-36
2022/12/30 08:23:16;;;;;;;14.18;5.15;;;4.70;99.90;;;;;;5024174;28;20050;-37
2022/12/30 08:25:42;;;;;;;12.00;5.13;;;4.70;99.90;;;;;;4996939;28;20064;-36
2022/12/30 08:28:09;;;;;;;16.95;5.70;;;4.70;99.90;;;;;;5017517;28;20072;-37
2022/12/30 08:30:39;;;;;;;19.05;6.07;;;4.70;99.90;;;;;;5015062;28;20530;-36
2022/12/30 08:33:28;;;;;;;13.23;5.20;;;4.80;99.90;;;;;;5012472;28;20088;-37
2022/12/30 08:36:11;;;;;;;11.13;4.37;;;4.80;99.90;;;;;;5013467;28;20026;-37
2022/12/30 08:38:40;;;;;;;16.75;4.97;;;4.80;99.90;;;;;;4993075;28;20347;-36
2022/12/30 08:41:16;;;;;;;19.13;5.00;;;4.90;99.90;;;;;;5000352;28;20076;-37
2022/12/30 08:44:31;;;;;;;17.10;7.88;;;4.90;99.90;;;;;;4996371;28;20053;-36
2022/12/30 08:47:36;;;;;;;10.98;5.85;;;5.00;99.90;;;;;;4997873;28;20049;-35
2022/12/30 08:50:38;;;;;;;14.93;5.45;;;5.10;99.90;;;;;;4981993;28;20096;-35
2022/12/30 08:53:16;;;;;;;16.10;6.47;;;5.10;99.90;;;;;;5008210;28;20458;-36
2022/12/30 08:55:42;;;;;;;12.07;6.68;;;5.10;99.90;;;;;;5013883;28;20034;-36
2022/12/30 08:58:08;;;;;;;16.02;6.25;;;5.20;99.90;;;;;;4987801;28;20068;-35
2022/12/30 09:00:34;;;;;;;15.65;5.32;;;5.20;99.90;;;;;;4997886;28;20038;-35
2022/12/30 09:03:00;;;;;;;12.85;4.60;;;5.30;99.90;;;;;;5017584;28;20451;-36
2022/12/30 09:05:26;;;;;;;11.20;4.80;;;5.30;99.90;;;;;;4997037;28;20116;-36
2022/12/30 09:07:51;;;;;;;17.55;5.25;;;5.30;99.90;;;;;;5001638;28;20052;-35
2022/12/30 09:10:18;;;;;;;12.35;3.80;;;5.40;99.90;;;;;;4997849;28;20064;-35
2022/12/30 09:12:43;;;;;;;9.85;3.50;;;5.40;99.90;;;;;;4990781;28;20038;-36
2022/12/30 09:15:10;;;;;;;9.48;3.25;;;5.50;99.90;;;;;;4999997;28;20041;-36
2022/12/30 09:17:36;;;;;;;11.82;4.07;;;5.60;99.90;;;;;;5002616;28;20113;-36
2022/12/30 09:20:02;;;;;;;13.55;3.80;;;5.60;99.90;;;;;;5000237;28;20478;-36
2022/12/30 09:22:29;;;;;;;9.50;3.28;;;5.60;99.90;;;;;;5025054;28;20033;-36
2022/12/30 09:24:54;;;;;;;10.23;3.80;;;5.70;99.90;;;;;;5020432;28;20042;-36
2022/12/30 09:27:20;;;;;;;10.30;4.10;;;5.70;99.90;;;;;;5000787;28;20037;-36
2022/12/30 09:29:46;;;;;;;10.00;4.03;;;5.80;99.90;;;;;;5001934;28;20050;-36
2022/12/30 09:32:12;;;;;;;12.85;4.65;;;5.80;99.90;;;;;;4985639;28;20088;-35
2022/12/30 09:34:38;;;;;;;11.82;2.70;;;5.80;99.90;;;;;;5003845;28;20030;-35
2022/12/30 09:37:04;;;;;;;9.70;3.00;;;5.90;99.90;;;;;;5001628;28;20061;-36
2022/12/30 09:39:32;;;;;;;10.82;3.60;;;5.90;99.90;;;;;;5010512;28;20077;-36
2022/12/30 09:45:22;;;;;;;6.93;2.50;;;6.00;99.90;;;;;;5021322;28;20045;-36
2022/12/30 09:47:53;;;;;;;9.23;3.28;;;6.10;99.90;;;;;;5000558;28;20046;-35
2022/12/30 09:50:39;;;;;;;10.45;3.45;;;6.10;99.90;;;;;;5011313;28;20095;-36
2022/12/30 09:53:08;;;;;;;14.95;4.75;;;6.10;99.90;;;;;;4999751;28;20034;-36
2022/12/30 09:55:53;;;;;;;8.73;3.97;;;6.20;99.90;;;;;;5018621;28;20095;-36
2022/12/30 09:58:28;;;;;;;5.70;3.10;;;6.20;99.90;;;;;;5015537;28;20062;-36
2022/12/30 10:00:56;;;;;;;10.32;3.05;;;6.30;99.90;;;;;;4984770;28;20563;-36
2022/12/30 10:03:25;;;;;;;8.73;2.90;;;6.30;99.90;;;;;;5001816;28;20386;-36
2022/12/30 10:06:15;;;;;;;8.18;3.10;;;6.40;99.90;;;;;;5000846;28;20038;-35
2022/12/30 10:08:44;;;;;;;6.60;2.60;;;6.50;99.90;;;;;;5016753;28;20034;-36
2022/12/30 10:11:36;;;;;;;9.48;3.20;;;6.50;99.90;;;;;;4999060;28;20037;-36
2022/12/30 10:14:26;;;;;;;7.18;3.17;;;6.50;99.90;;;;;;5001029;28;20510;-36
2022/12/30 10:17:21;;;;;;;4.22;2.50;;;6.60;99.90;;;;;;5019299;28;20049;-36
2022/12/30 10:20:04;;;;;;;5.60;3.10;;;6.60;99.90;;;;;;5012363;28;20377;-36
2022/12/30 10:22:37;;;;;;;13.82;7.75;;;6.70;99.90;;;;;;4995808;28;20518;-36
2022/12/30 10:25:17;;;;;;;17.52;7.13;;;6.70;99.90;;;;;;5018583;28;20049;-36
2022/12/30 10:27:53;;;;;;;13.73;7.50;;;6.80;99.90;;;;;;5016725;28;20037;-36
2022/12/30 10:30:23;;;;;;;18.80;10.68;;;6.80;99.90;;;;;;5015965;28;20041;-36
2022/12/30 10:32:57;;;;;;;16.92;13.30;;;6.80;99.90;;;;;;5019881;28;20042;-36
2022/12/30 10:35:26;;;;;;;17.65;14.40;;;6.90;99.90;;;;;;4998628;28;20044;-36
2022/12/30 10:37:59;;;;;;;16.73;12.20;;;7.00;99.90;;;;;;5017638;28;20057;-36
2022/12/30 10:40:38;;;;;;;12.48;8.75;;;7.10;99.90;;;;;;5020966;28;20033;-36
2022/12/30 10:43:33;;;;;;;12.02;5.35;;;7.20;99.90;;;;;;5014970;28;20119;-36
2022/12/30 10:46:17;;;;;;;8.50;5.55;;;7.30;99.90;;;;;;4971037;28;20053;-36
2022/12/30 10:48:59;;;;;;;11.07;6.93;;;7.30;99.90;;;;;;5020849;28;20038;-36
2022/12/30 10:51:26;;;;;;;11.32;6.32;;;7.30;99.90;;;;;;5005981;28;20384;-36
2022/12/30 10:53:53;;;;;;;6.30;4.10;;;7.40;99.90;;;;;;5020675;28;20188;-36
2022/12/30 10:56:28;;;;;;;10.23;4.03;;;7.40;99.90;;;;;;5027269;28;20034;-36
2022/12/30 10:58:58;;;;;;;7.35;3.72;;;7.50;99.90;;;;;;5023491;28;20041;-36
2022/12/30 11:01:30;;;;;;;7.18;4.25;;;7.50;99.90;;;;;;5002184;28;20037;-36
2022/12/30 11:03:58;;;;;;;8.63;3.67;;;7.50;99.90;;;;;;5023626;28;20061;-36
2022/12/30 11:06:31;;;;;;;7.13;3.40;;;7.50;99.90;;;;;;5001476;28;20048;-36
2022/12/30 11:09:12;;;;;;;6.82;2.95;;;7.50;99.90;;;;;;5011170;28;20042;-36
2022/12/30 11:14:42;;;;;;;10.57;4.68;;;7.50;99.90;;;;;;5012257;28;20510;-36
2022/12/30 11:17:23;;;;;;;6.47;2.65;;;7.60;99.90;;;;;;5000328;28;20030;-36
2022/12/30 11:20:02;;;;;;;7.38;3.20;;;7.60;99.90;;;;;;4997467;28;20096;-36
2022/12/30 11:22:28;;;;;;;6.93;2.45;;;7.70;99.90;;;;;;4984614;28;20038;-36
2022/12/30 11:25:21;;;;;;;7.90;2.65;;;7.70;99.90;;;;;;5010758;28;20053;-36
2022/12/30 11:27:51;;;;;;;7.18;3.42;;;7.70;99.90;;;;;;5005096;28;20077;-36
2022/12/30 11:30:32;;;;;;;4.30;2.58;;;7.80;99.90;;;;;;5006381;28;20033;-35
2022/12/30 11:33:02;;;;;;;5.70;2.70;;;7.90;99.90;;;;;;4996204;28;20038;-35
2022/12/30 11:35:38;;;;;;;8.35;3.60;;;7.90;99.90;;;;;;5016431;28;20044;-36
2022/12/30 11:38:34;;;;;;;6.68;2.63;;;8.00;99.90;;;;;;5016063;28;20492;-36
2022/12/30 11:41:27;;;;;;;10.77;2.47;;;7.90;99.90;;;;;;4985986;28;20057;-36
2022/12/30 11:43:56;;;;;;;4.55;2.47;;;8.00;99.90;;;;;;5009027;28;20104;-36
2022/12/30 11:46:44;;;;;;;5.68;2.08;;;7.90;99.90;;;;;;4997807;28;20046;-36
2022/12/30 11:49:32;;;;;;;10.90;2.60;;;8.00;99.90;;;;;;4998235;28;20049;-36
2022/12/30 11:52:10;;;;;;;6.10;2.65;;;8.00;99.90;;;;;;4994287;28;20434;-36
2022/12/30 11:54:44;;;;;;;7.80;2.67;;;8.00;99.90;;;;;;5015627;28;20030;-36
2022/12/30 11:57:28;;;;;;;3.53;1.90;;;8.00;99.90;;;;;;5026563;28;20033;-35
2022/12/30 12:00:00;;;;;;;5.72;2.17;;;8.00;99.90;;;;;;5015300;28;20098;-36
2022/12/30 12:02:38;;;;;;;4.13;2.00;;;8.10;99.90;;;;;;5003350;28;20483;-36
2022/12/30 12:05:29;;;;;;;6.28;2.53;;;8.10;99.90;;;;;;5012711;28;20080;-36
2022/12/30 12:08:30;;;;;;;5.93;3.30;;;8.10;99.90;;;;;;5016434;28;20048;-36
2022/12/30 12:11:09;;;;;;;10.13;4.50;;;8.10;99.90;;;;;;4966190;28;20053;-36
2022/12/30 12:13:53;;;;;;;8.43;3.30;;;8.10;99.90;;;;;;5004727;28;20506;-35
2022/12/30 12:16:52;;;;;;;7.72;2.72;;;8.20;99.90;;;;;;5020929;28;20044;-36
2022/12/30 12:19:30;;;;;;;4.57;2.58;;;8.20;99.90;;;;;;5014400;28;20036;-35
2022/12/30 12:22:00;;;;;;;6.95;3.50;;;8.20;99.90;;;;;;5006633;28;20501;-35
2022/12/30 12:24:32;;;;;;;7.88;2.63;;;8.20;99.90;;;;;;5016260;28;20565;-36
2022/12/30 12:27:09;;;;;;;9.15;2.88;;;8.20;99.90;;;;;;5001267;28;20038;-36
2022/12/30 12:29:35;;;;;;;5.07;2.20;;;8.20;99.90;;;;;;5021046;28;20033;-35
2022/12/30 12:32:01;;;;;;;7.53;2.20;;;8.30;99.90;;;;;;5016914;28;20638;-35
2022/12/30 12:34:54;;;;;;;4.85;1.70;;;8.30;99.90;;;;;;5014058;28;20037;-36
2022/12/30 12:37:35;;;;;;;6.45;2.30;;;8.30;99.90;;;;;;4994055;28;20044;-36
2022/12/30 12:40:20;;;;;;;3.80;2.10;;;8.30;99.90;;;;;;4997493;28;20493;-36
2022/12/30 12:42:49;;;;;;;3.90;1.90;;;8.40;99.90;;;;;;4992977;28;20096;-35
2022/12/30 12:45:33;;;;;;;4.60;2.00;;;8.40;99.90;;;;;;4999000;28;20491;-35
2022/12/30 12:48:40;;;;;;;7.20;1.88;;;8.40;99.90;;;;;;4981830;28;20124;-36
2022/12/30 12:51:08;;;;;;;7.45;2.00;;;8.40;99.90;;;;;;5002707;28;20480;-36
2022/12/30 12:53:49;;;;;;;3.88;1.80;;;8.40;99.90;;;;;;5014079;28;20080;-36
2022/12/30 12:56:35;;;;;;;5.63;2.03;;;8.50;99.90;;;;;;5021318;28;20084;-36
2022/12/30 12:59:19;;;;;;;2.75;1.73;;;8.50;99.90;;;;;;5000436;28;20450;-36
2022/12/30 13:02:21;;;;;;;6.82;1.98;;;8.50;99.90;;;;;;5021040;28;20033;-36
2022/12/30 13:05:07;;;;;;;4.63;1.67;;;8.50;99.90;;;;;;5013990;28;20156;-35
2022/12/30 13:07:53;;;;;;;9.30;2.28;;;8.60;99.90;;;;;;5011660;28;20104;-36
2022/12/30 13:10:27;;;;;;;5.20;2.15;;;8.60;99.90;;;;;;5014753;28;20049;-35
2022/12/30 13:12:56;;;;;;;4.97;2.03;;;8.60;99.90;;;;;;5017708;28;20483;-36
2022/12/30 13:15:30;;;;;;;4.18;1.98;;;8.60;99.90;;;;;;5013739;28;20034;-36
2022/12/30 13:17:58;;;;;;;;;;;8.60;99.90;;;;;;5016515;28;20042;-35
2022/12/30 13:20:30;;;;;;;5.22;3.13;;;8.60;99.90;;;;;;4998092;28;19931;-38
2022/12/30 13:23:01;;;;;;;6.75;3.13;;;8.60;99.90;;;;;;5015198;28;20107;-35
2022/12/30 13:25:42;;;;;;;6.05;3.28;;;8.60;99.90;;;;;;5012941;28;20038;-40
2022/12/30 13:28:23;;;;;;;5.53;2.25;;;8.60;99.90;;;;;;4995124;28;20504;-39
2022/12/30 13:31:18;;;;;;;6.95;2.75;;;8.60;99.90;;;;;;5014080;28;20402;-39
2022/12/30 13:41:32;;;;;;;4.78;1.40;;;8.60;99.90;;;;;;4985930;28;20041;-39
2022/12/30 13:48:28;;;;;;;5.40;1.90;;;8.70;99.90;;;;;;4992523;28;20077;-37
2022/12/30 13:51:20;;;;;;;3.80;1.73;;;8.70;99.90;;;;;;4997716;28;20038;-37
2022/12/30 13:53:53;;;;;;;4.00;1.55;;;8.70;99.90;;;;;;4999375;28;20041;-37
2022/12/30 13:56:46;;;;;;;4.25;1.38;;;8.80;99.90;;;;;;5016022;28;20038;-37
2022/12/30 13:59:24;;;;;;;3.10;1.50;;;8.80;99.90;;;;;;4999204;28;20093;-38
2022/12/30 14:02:11;;;;;;;2.70;1.20;;;8.90;99.90;;;;;;5021307;28;20037;-37
2022/12/30 14:04:49;;;;;;;5.88;1.38;;;9.00;99.90;;;;;;5016791;28;20033;-37
2022/12/30 14:07:37;;;;;;;4.25;1.40;;;9.00;99.90;;;;;;4997997;28;20383;-38
2022/12/30 14:10:17;;;;;;;4.40;2.17;;;9.10;99.90;;;;;;5000115;28;20065;-37
2022/12/30 14:13:31;;;;;;;4.35;1.70;;;9.10;99.90;;;;;;5016598;28;20038;-37
2022/12/30 14:16:13;;;;;;;3.10;1.50;;;9.10;99.90;;;;;;5000937;28;20037;-37
2022/12/30 14:19:31;;;;;;;4.95;1.80;;;9.10;99.90;;;;;;5015240;28;20491;-37
2022/12/30 14:22:03;;;;;;;4.20;2.00;;;9.10;99.90;;;;;;5013631;28;20029;-38
2022/12/30 14:24:38;;;;;;;4.47;2.30;;;9.10;99.90;;;;;;4998855;28;20523;-37
2022/12/30 14:27:44;;;;;;;6.32;2.45;;;9.00;99.90;;;;;;5018556;28;20040;-38
2022/12/30 14:30:37;;;;;;;10.55;4.60;;;9.00;99.90;;;;;;5019935;28;20040;-37
2022/12/30 14:37:07;;;;;;;7.40;3.85;;;8.80;99.90;;;;;;5016510;28;20091;-37